createdAt,value
2018-03-27T00:00:10.642Z,0
2018-03-27T00:01:20.082Z,0
2018-03-27T00:02:29.788Z,0
2018-03-27T00:03:39.231Z,0
2018-03-27T00:04:48.943Z,0
2018-03-27T00:05:57.874Z,0
2018-03-27T00:07:07.313Z,0
2018-03-27T00:08:16.507Z,0
2018-03-27T00:09:26.212Z,0
2018-03-27T00:10:35.664Z,0
2018-03-27T00:11:45.371Z,0
2018-03-27T00:12:55.338Z,0
2018-03-27T00:14:04.776Z,0
2018-03-27T00:15:14.741Z,0
2018-03-27T00:16:24.743Z,0
2018-03-27T00:17:34.734Z,0
2018-03-27T00:18:44.707Z,0
2018-03-27T00:19:54.410Z,0
2018-03-27T00:21:04.115Z,0
2018-03-27T00:22:14.066Z,0
2018-03-27T00:23:23.253Z,0
2018-03-27T00:24:33.208Z,0
2018-03-27T00:25:43.162Z,0
2018-03-27T00:26:53.156Z,0
2018-03-27T00:28:03.134Z,0
2018-03-27T00:29:13.101Z,0
2018-03-27T00:30:23.064Z,0
2018-03-27T00:31:33.017Z,0
2018-03-27T00:32:42.985Z,0
2018-03-27T00:33:52.926Z,0
2018-03-27T00:35:02.638Z,0
2018-03-27T00:36:12.604Z,0
2018-03-27T00:37:22.310Z,0
2018-03-27T00:38:32.021Z,0
2018-03-27T00:39:41.209Z,0
2018-03-27T00:40:50.426Z,0
2018-03-27T00:42:00.389Z,0
2018-03-27T00:43:10.348Z,0
2018-03-27T00:44:20.303Z,0
2018-03-27T00:45:29.994Z,0
2018-03-27T00:46:39.960Z,0
2018-03-27T00:47:49.941Z,0
2018-03-27T00:48:59.898Z,0
2018-03-27T00:50:09.854Z,0
2018-03-27T00:51:19.561Z,0
2018-03-27T00:52:29.527Z,0
2018-03-27T00:53:39.244Z,0
2018-03-27T00:54:48.957Z,0
2018-03-27T00:55:58.669Z,0
2018-03-27T00:57:08.634Z,0
2018-03-27T00:58:18.600Z,0
2018-03-27T00:59:28.560Z,0
2018-03-27T01:00:38.518Z,0
2018-03-27T01:01:48.216Z,0
2018-03-27T01:02:58.187Z,0
2018-03-27T01:04:08.271Z,0
2018-03-27T01:05:17.966Z,0
2018-03-27T01:06:27.678Z,0
2018-03-27T01:07:37.644Z,0
2018-03-27T01:08:47.601Z,0
2018-03-27T01:09:57.297Z,0
2018-03-27T01:11:07.269Z,0
2018-03-27T01:12:17.244Z,0
2018-03-27T01:13:27.255Z,0
2018-03-27T01:14:37.220Z,0
2018-03-27T01:15:46.916Z,0
2018-03-27T01:16:56.378Z,0
2018-03-27T01:18:06.081Z,0
2018-03-27T01:19:15.783Z,0
2018-03-27T01:20:25.224Z,0
2018-03-27T01:21:34.963Z,0
2018-03-27T01:22:44.922Z,0
2018-03-27T01:23:54.614Z,0
2018-03-27T01:25:04.354Z,0
2018-03-27T01:26:14.308Z,0
2018-03-27T01:27:24.270Z,0
2018-03-27T01:28:33.976Z,0
2018-03-27T01:29:43.936Z,0
2018-03-27T01:30:53.688Z,0
2018-03-27T01:32:03.648Z,0
2018-03-27T01:33:13.347Z,0
2018-03-27T01:34:23.061Z,0
2018-03-27T01:35:33.020Z,0
2018-03-27T01:36:42.202Z,0
2018-03-27T01:37:51.918Z,0
2018-03-27T01:39:01.896Z,0
2018-03-27T01:40:11.872Z,0
2018-03-27T01:41:21.316Z,0
2018-03-27T01:42:31.018Z,0
2018-03-27T01:43:40.707Z,0
2018-03-27T01:44:50.418Z,0
2018-03-27T01:46:00.385Z,0
2018-03-27T01:47:09.576Z,0
2018-03-27T01:48:19.268Z,0
2018-03-27T01:49:28.976Z,0
2018-03-27T01:50:38.954Z,0
2018-03-27T01:51:48.659Z,0
2018-03-27T01:52:58.349Z,0
2018-03-27T01:54:08.318Z,0
2018-03-27T01:55:17.761Z,0
2018-03-27T01:56:27.485Z,0
2018-03-27T01:57:37.438Z,0
2018-03-27T01:58:47.139Z,0
2018-03-27T01:59:56.841Z,0
2018-03-27T02:01:06.800Z,0
2018-03-27T02:02:16.770Z,0
2018-03-27T02:03:26.472Z,0
2018-03-27T02:04:36.168Z,0
2018-03-27T02:05:45.881Z,0
2018-03-27T02:06:55.856Z,0
2018-03-27T02:08:05.825Z,0
2018-03-27T02:09:15.782Z,0
2018-03-27T02:10:25.490Z,0
2018-03-27T02:11:35.446Z,0
2018-03-27T02:12:45.417Z,0
2018-03-27T02:13:55.372Z,0
2018-03-27T02:15:05.354Z,0
2018-03-27T02:16:15.318Z,0
2018-03-27T02:17:25.166Z,0
2018-03-27T02:18:35.127Z,0
2018-03-27T02:19:44.833Z,0
2018-03-27T02:20:54.804Z,0
2018-03-27T02:22:04.824Z,0
2018-03-27T02:23:14.797Z,0
2018-03-27T02:24:24.240Z,0
2018-03-27T02:25:33.957Z,0
2018-03-27T02:26:43.932Z,0
2018-03-27T02:27:53.649Z,0
2018-03-27T02:29:03.351Z,0
2018-03-27T02:30:13.331Z,0
2018-03-27T02:31:23.309Z,0
2018-03-27T02:32:33.273Z,0
2018-03-27T02:33:43.247Z,0
2018-03-27T02:34:53.417Z,0
2018-03-27T02:36:03.217Z,0
2018-03-27T02:37:12.933Z,0
2018-03-27T02:38:22.640Z,0
2018-03-27T02:39:32.607Z,0
2018-03-27T02:40:42.326Z,0
2018-03-27T02:41:52.043Z,0
2018-03-27T02:43:02.018Z,0
2018-03-27T02:44:11.478Z,0
2018-03-27T02:45:21.712Z,0
2018-03-27T02:46:31.420Z,0
2018-03-27T02:47:41.118Z,0
2018-03-27T02:48:50.571Z,0
2018-03-27T02:50:00.297Z,0
2018-03-27T02:51:09.785Z,0
2018-03-27T02:52:19.229Z,0
2018-03-27T02:53:28.941Z,0
2018-03-27T02:54:38.514Z,0
2018-03-27T02:55:48.588Z,0
2018-03-27T02:56:58.570Z,0
2018-03-27T02:58:08.531Z,0
2018-03-27T02:59:18.492Z,0
2018-03-27T03:00:28.195Z,0
2018-03-27T03:01:38.166Z,0
2018-03-27T03:02:47.607Z,0
2018-03-27T03:03:57.584Z,0
2018-03-27T03:05:07.582Z,0
2018-03-27T03:06:17.539Z,0
2018-03-27T03:07:27.251Z,0
2018-03-27T03:08:36.970Z,0
2018-03-27T03:09:46.681Z,0
2018-03-27T03:10:56.129Z,0
2018-03-27T03:12:05.838Z,0
2018-03-27T03:13:15.798Z,0
2018-03-27T03:14:25.482Z,0
2018-03-27T03:15:35.188Z,0
2018-03-27T03:16:44.887Z,0
2018-03-27T03:17:54.578Z,0
2018-03-27T03:19:04.019Z,0
2018-03-27T03:20:13.493Z,0
2018-03-27T03:21:23.471Z,0
2018-03-27T03:22:33.167Z,0
2018-03-27T03:23:43.122Z,0
2018-03-27T03:24:52.811Z,0
2018-03-27T03:26:02.775Z,0
2018-03-27T03:27:12.728Z,0
2018-03-27T03:28:22.233Z,0
2018-03-27T03:29:31.884Z,0
2018-03-27T03:30:41.331Z,0
2018-03-27T03:31:51.059Z,0
2018-03-27T03:33:00.757Z,0
2018-03-27T03:34:10.721Z,0
2018-03-27T03:35:20.420Z,0
2018-03-27T03:36:29.758Z,0
2018-03-27T03:37:39.707Z,0
2018-03-27T03:38:49.139Z,0
2018-03-27T03:39:59.091Z,0
2018-03-27T03:41:08.786Z,0
2018-03-27T03:42:18.502Z,0
2018-03-27T03:43:28.211Z,0
2018-03-27T03:44:38.178Z,0
2018-03-27T03:45:47.355Z,0
2018-03-27T03:46:56.791Z,0
2018-03-27T03:48:06.485Z,0
2018-03-27T03:49:16.435Z,0
2018-03-27T03:50:25.616Z,0
2018-03-27T03:51:35.314Z,0
2018-03-27T03:52:45.026Z,0
2018-03-27T03:53:54.983Z,0
2018-03-27T03:55:04.423Z,0
2018-03-27T03:56:14.120Z,0
2018-03-27T03:57:24.079Z,0
2018-03-27T03:58:34.034Z,0
2018-03-27T03:59:44.008Z,0
2018-03-27T04:00:53.721Z,0
2018-03-27T04:02:03.683Z,0
2018-03-27T04:03:13.388Z,0
2018-03-27T04:04:23.356Z,0
2018-03-27T04:05:33.332Z,0
2018-03-27T04:06:43.036Z,0
2018-03-27T04:07:52.730Z,0
2018-03-27T04:09:02.693Z,0
2018-03-27T04:10:11.873Z,0
2018-03-27T04:11:21.889Z,0
2018-03-27T04:12:31.649Z,0
2018-03-27T04:13:41.628Z,0
2018-03-27T04:14:51.065Z,0
2018-03-27T04:16:00.508Z,0
2018-03-27T04:17:10.503Z,0
2018-03-27T04:18:20.220Z,0
2018-03-27T04:19:30.209Z,0
2018-03-27T04:20:39.901Z,0
2018-03-27T04:21:49.859Z,0
2018-03-27T04:22:59.826Z,4
2018-03-27T04:24:09.547Z,4
2018-03-27T04:25:19.260Z,0
2018-03-27T04:26:28.694Z,4
2018-03-27T04:27:38.397Z,4
2018-03-27T04:28:48.092Z,4
2018-03-27T04:29:57.794Z,4
2018-03-27T04:31:07.751Z,8
2018-03-27T04:32:17.730Z,12
2018-03-27T04:33:27.429Z,16
2018-03-27T04:34:37.140Z,20
2018-03-27T04:35:47.105Z,20
2018-03-27T04:36:57.063Z,28
2018-03-27T04:38:07.017Z,36
2018-03-27T04:39:16.721Z,40
2018-03-27T04:40:26.428Z,52
2018-03-27T04:41:36.403Z,64
2018-03-27T04:42:46.389Z,76
2018-03-27T04:43:56.355Z,92
2018-03-27T04:45:06.326Z,108
2018-03-27T04:46:16.289Z,128
2018-03-27T04:47:25.721Z,156
2018-03-27T04:48:35.165Z,184
2018-03-27T04:49:45.128Z,216
2018-03-27T04:50:54.568Z,256
2018-03-27T04:52:04.286Z,296
2018-03-27T04:53:14.248Z,340
2018-03-27T04:54:23.946Z,384
2018-03-27T04:55:33.911Z,432
2018-03-27T04:56:43.603Z,484
2018-03-27T04:57:53.306Z,544
2018-03-27T04:59:02.750Z,596
2018-03-27T05:00:12.713Z,660
2018-03-27T05:01:22.411Z,736
2018-03-27T05:02:32.199Z,816
2018-03-27T05:03:42.412Z,904
2018-03-27T05:04:51.851Z,988
2018-03-27T05:06:01.565Z,1064
2018-03-27T05:07:11.272Z,1140
2018-03-27T05:08:20.975Z,1204
2018-03-27T05:09:30.685Z,1236
2018-03-27T05:10:40.645Z,1236
2018-03-27T05:11:50.349Z,1228
2018-03-27T05:13:00.313Z,1188
2018-03-27T05:14:09.751Z,1136
2018-03-27T05:15:19.452Z,1072
2018-03-27T05:16:29.151Z,964
2018-03-27T05:17:39.124Z,756
2018-03-27T05:18:49.093Z,588
2018-03-27T05:19:59.064Z,540
2018-03-27T05:21:09.033Z,560
2018-03-27T05:22:19.035Z,644
2018-03-27T05:23:28.737Z,792
2018-03-27T05:24:38.789Z,1012
2018-03-27T05:25:48.746Z,1272
2018-03-27T05:26:58.457Z,1508
2018-03-27T05:28:08.164Z,1712
2018-03-27T05:29:17.878Z,1884
2018-03-27T05:30:27.603Z,2000
2018-03-27T05:31:37.575Z,2080
2018-03-27T05:32:47.551Z,2188
2018-03-27T05:33:57.585Z,2368
2018-03-27T05:35:07.542Z,2540
2018-03-27T05:36:17.520Z,2712
2018-03-27T05:37:27.492Z,2928
2018-03-27T05:38:37.484Z,3140
2018-03-27T05:39:46.668Z,3300
2018-03-27T05:40:56.122Z,3368
2018-03-27T05:42:05.845Z,3360
2018-03-27T05:43:15.542Z,3348
2018-03-27T05:44:25.240Z,3332
2018-03-27T05:45:34.699Z,3316
2018-03-27T05:46:44.752Z,3260
2018-03-27T05:47:54.773Z,3144
2018-03-27T05:49:04.469Z,3016
2018-03-27T05:50:14.172Z,2832
2018-03-27T05:51:23.958Z,2908
2018-03-27T05:52:33.928Z,3176
2018-03-27T05:53:43.108Z,3392
2018-03-27T05:54:52.552Z,3464
2018-03-27T05:56:02.464Z,3400
2018-03-27T05:57:12.243Z,3480
2018-03-27T05:58:21.952Z,3728
2018-03-27T05:59:31.710Z,4076
2018-03-27T06:00:41.167Z,4552
2018-03-27T06:01:51.122Z,5152
2018-03-27T06:03:01.095Z,5692
2018-03-27T06:04:10.282Z,6000
2018-03-27T06:05:19.991Z,6084
2018-03-27T06:06:29.478Z,5992
2018-03-27T06:07:38.693Z,5784
2018-03-27T06:08:48.932Z,5576
2018-03-27T06:09:58.912Z,5432
2018-03-27T06:11:08.096Z,5508
2018-03-27T06:12:17.603Z,5812
2018-03-27T06:13:27.305Z,6316
2018-03-27T06:14:37.277Z,6996
2018-03-27T06:15:46.994Z,7188
2018-03-27T06:16:56.957Z,7232
2018-03-27T06:18:06.680Z,7480
2018-03-27T06:19:16.647Z,7884
2018-03-27T06:20:26.348Z,8156
2018-03-27T06:21:36.043Z,8500
2018-03-27T06:22:45.751Z,8644
2018-03-27T06:23:55.460Z,8544
2018-03-27T06:25:05.162Z,8416
2018-03-27T06:26:14.856Z,8284
2018-03-27T06:27:24.702Z,8184
2018-03-27T06:28:34.437Z,8144
2018-03-27T06:29:44.160Z,8004
2018-03-27T06:30:53.856Z,7920
2018-03-27T06:32:03.549Z,7984
2018-03-27T06:33:12.997Z,8048
2018-03-27T06:34:22.700Z,8248
2018-03-27T06:35:32.679Z,8660
2018-03-27T06:36:42.385Z,8768
2018-03-27T06:37:52.351Z,8408
2018-03-27T06:39:02.054Z,8120
2018-03-27T06:40:11.836Z,8068
2018-03-27T06:41:21.801Z,8140
2018-03-27T06:42:31.253Z,8084
2018-03-27T06:43:40.938Z,7972
2018-03-27T06:44:50.703Z,7608
2018-03-27T06:46:00.416Z,7476
2018-03-27T06:47:10.388Z,7808
2018-03-27T06:48:20.352Z,8264
2018-03-27T06:49:30.059Z,8744
2018-03-27T06:50:39.764Z,9232
2018-03-27T06:51:49.742Z,9732
2018-03-27T06:52:59.197Z,9980
2018-03-27T06:54:09.167Z,10696
2018-03-27T06:55:18.611Z,11568
2018-03-27T06:56:28.570Z,12912
2018-03-27T06:57:38.543Z,13892
2018-03-27T06:58:48.239Z,14268
2018-03-27T06:59:57.972Z,14268
2018-03-27T07:01:07.681Z,14160
2018-03-27T07:02:17.461Z,14236
2018-03-27T07:03:27.151Z,14576
2018-03-27T07:04:37.197Z,14896
2018-03-27T07:05:47.421Z,15568
2018-03-27T07:06:57.247Z,16204
2018-03-27T07:08:07.239Z,17056
2018-03-27T07:09:17.289Z,17536
2018-03-27T07:10:27.281Z,17600
2018-03-27T07:11:37.010Z,17216
2018-03-27T07:12:46.823Z,16460
2018-03-27T07:13:56.959Z,16384
2018-03-27T07:15:06.982Z,16460
2018-03-27T07:16:17.068Z,16284
2018-03-27T07:17:27.082Z,16128
2018-03-27T07:18:37.110Z,16332
2018-03-27T07:19:47.220Z,16728
2018-03-27T07:20:57.322Z,17344
2018-03-27T07:22:07.295Z,17920
2018-03-27T07:23:17.270Z,17792
2018-03-27T07:24:27.249Z,17100
2018-03-27T07:25:37.226Z,16444
2018-03-27T07:26:46.935Z,16100
2018-03-27T07:27:56.898Z,15496
2018-03-27T07:29:06.915Z,14556
2018-03-27T07:30:16.890Z,13852
2018-03-27T07:31:26.859Z,12924
2018-03-27T07:32:36.951Z,12844
2018-03-27T07:33:46.930Z,13404
2018-03-27T07:34:56.911Z,14464
2018-03-27T07:36:06.643Z,15296
2018-03-27T07:37:16.608Z,15600
2018-03-27T07:38:26.378Z,14524
2018-03-27T07:39:36.357Z,12484
2018-03-27T07:40:46.087Z,12084
2018-03-27T07:41:56.077Z,12236
2018-03-27T07:43:05.792Z,12048
2018-03-27T07:44:15.520Z,11644
2018-03-27T07:45:25.254Z,11404
2018-03-27T07:46:34.693Z,11404
2018-03-27T07:47:44.654Z,11684
2018-03-27T07:48:54.360Z,13084
2018-03-27T07:50:04.345Z,14148
2018-03-27T07:51:14.313Z,15024
2018-03-27T07:52:24.300Z,15532
2018-03-27T07:53:34.277Z,15228
2018-03-27T07:54:43.983Z,14708
2018-03-27T07:55:53.689Z,14552
2018-03-27T07:57:03.666Z,14732
2018-03-27T07:58:13.447Z,14340
2018-03-27T07:59:23.185Z,14896
2018-03-27T08:00:32.646Z,15652
2018-03-27T08:01:42.631Z,16784
2018-03-27T08:02:52.606Z,17864
2018-03-27T08:04:02.333Z,18100
2018-03-27T08:05:12.297Z,17212
2018-03-27T08:06:22.280Z,17552
2018-03-27T08:07:32.252Z,18464
2018-03-27T08:08:42.207Z,18688
2018-03-27T08:09:52.179Z,18976
2018-03-27T08:11:02.099Z,19520
2018-03-27T08:12:12.201Z,20480
2018-03-27T08:13:21.931Z,21600
2018-03-27T08:14:31.909Z,23712
2018-03-27T08:15:41.874Z,25312
2018-03-27T08:16:51.637Z,24768
2018-03-27T08:18:01.622Z,23776
2018-03-27T08:19:11.591Z,24288
2018-03-27T08:20:21.308Z,23776
2018-03-27T08:21:31.290Z,25504
2018-03-27T08:22:41.007Z,21696
2018-03-27T08:23:51.025Z,20992
2018-03-27T08:25:01.005Z,20704
2018-03-27T08:26:10.484Z,20832
2018-03-27T08:27:20.459Z,20672
2018-03-27T08:28:30.176Z,20672
2018-03-27T08:29:40.257Z,20576
2018-03-27T08:30:49.964Z,20032
2018-03-27T08:31:59.705Z,19136
2018-03-27T08:33:09.433Z,18240
2018-03-27T08:34:19.406Z,17696
2018-03-27T08:35:29.445Z,17232
2018-03-27T08:36:39.418Z,17600
2018-03-27T08:37:49.649Z,18048
2018-03-27T08:38:59.633Z,18400
2018-03-27T08:40:09.613Z,18240
2018-03-27T08:41:19.592Z,17984
2018-03-27T08:42:29.556Z,18080
2018-03-27T08:43:39.041Z,18592
2018-03-27T08:44:48.757Z,19808
2018-03-27T08:45:58.721Z,21216
2018-03-27T08:47:08.429Z,21824
2018-03-27T08:48:18.404Z,21920
2018-03-27T08:49:28.375Z,21952
2018-03-27T08:50:38.342Z,22144
2018-03-27T08:51:48.069Z,22304
2018-03-27T08:52:58.026Z,22144
2018-03-27T08:54:08.112Z,22464
2018-03-27T08:55:18.262Z,24416
2018-03-27T08:56:28.219Z,27072
2018-03-27T08:57:38.183Z,27680
2018-03-27T08:58:48.160Z,35520
2018-03-27T08:59:58.207Z,52480
2018-03-27T09:01:08.294Z,57504
2018-03-27T09:02:17.473Z,61664
2018-03-27T09:03:26.962Z,61952
2018-03-27T09:04:37.142Z,60608
2018-03-27T09:05:46.595Z,27872
2018-03-27T09:06:56.593Z,26720
2018-03-27T09:08:06.567Z,25696
2018-03-27T09:09:16.285Z,17252
2018-03-27T09:10:26.020Z,16720
2018-03-27T09:11:35.993Z,17024
2018-03-27T09:12:45.955Z,17808
2018-03-27T09:13:55.935Z,21120
2018-03-27T09:15:05.919Z,21440
2018-03-27T09:16:15.642Z,33440
2018-03-27T09:17:25.354Z,65504
2018-03-27T09:18:35.061Z,66176
2018-03-27T09:19:44.777Z,66752
2018-03-27T09:20:54.747Z,64704
2018-03-27T09:22:04.729Z,59456
2018-03-27T09:23:14.454Z,50304
2018-03-27T09:24:24.489Z,69248
2018-03-27T09:25:34.463Z,70624
2018-03-27T09:26:44.177Z,70624
2018-03-27T09:27:54.157Z,70944
2018-03-27T09:29:04.149Z,67872
2018-03-27T09:30:14.139Z,69824
2018-03-27T09:31:24.153Z,72160
2018-03-27T09:32:33.613Z,69568
2018-03-27T09:33:43.589Z,28384
2018-03-27T09:34:52.796Z,22144
2018-03-27T09:36:02.531Z,21184
2018-03-27T09:37:12.520Z,21696
2018-03-27T09:38:22.496Z,23232
2018-03-27T09:39:31.968Z,25728
2018-03-27T09:40:41.954Z,34464
2018-03-27T09:41:51.936Z,21728
2018-03-27T09:43:01.939Z,20256
2018-03-27T09:44:11.651Z,19744
2018-03-27T09:45:21.640Z,19712
2018-03-27T09:46:31.364Z,20288
2018-03-27T09:47:40.809Z,21440
2018-03-27T09:48:50.566Z,22304
2018-03-27T09:50:00.034Z,22816
2018-03-27T09:51:10.011Z,23680
2018-03-27T09:52:19.481Z,25760
2018-03-27T09:53:29.216Z,38112
2018-03-27T09:54:38.938Z,29472
2018-03-27T09:55:48.914Z,32064
2018-03-27T09:56:58.855Z,33440
2018-03-27T09:58:08.597Z,34848
2018-03-27T09:59:18.310Z,34752
2018-03-27T10:00:28.032Z,34176
2018-03-27T10:01:38.014Z,34464
2018-03-27T10:02:47.749Z,33504
2018-03-27T10:03:57.203Z,32384
2018-03-27T10:05:06.622Z,31616
2018-03-27T10:06:16.334Z,31488
2018-03-27T10:07:26.056Z,31616
2018-03-27T10:08:35.512Z,32160
2018-03-27T10:09:45.496Z,32192
2018-03-27T10:10:55.215Z,61152
2018-03-27T10:12:04.669Z,100576
2018-03-27T10:13:14.395Z,103776
2018-03-27T10:14:24.361Z,105504
2018-03-27T10:15:33.830Z,108128
2018-03-27T10:16:43.546Z,107744
2018-03-27T10:17:53.535Z,109920
2018-03-27T10:19:03.522Z,108640
2018-03-27T10:20:12.993Z,109728
2018-03-27T10:21:22.188Z,107904
2018-03-27T10:22:32.166Z,111776
2018-03-27T10:23:41.696Z,115104
2018-03-27T10:24:51.730Z,114944
2018-03-27T10:26:01.466Z,114272
2018-03-27T10:27:11.187Z,112352
2018-03-27T10:28:21.166Z,116704
2018-03-27T10:29:31.148Z,115520
2018-03-27T10:30:41.134Z,115424
2018-03-27T10:31:51.149Z,116832
2018-03-27T10:33:00.664Z,119584
2018-03-27T10:34:10.476Z,122208
2018-03-27T10:35:19.992Z,123840
2018-03-27T10:36:29.984Z,126944
2018-03-27T10:37:39.961Z,49120
2018-03-27T10:38:49.941Z,55968
2018-03-27T10:39:59.915Z,53280
2018-03-27T10:41:09.633Z,47488
2018-03-27T10:42:19.083Z,91712
2018-03-27T10:43:29.056Z,40832
2018-03-27T10:44:39.031Z,30688
2018-03-27T10:45:48.749Z,27296
2018-03-27T10:46:58.728Z,25056
2018-03-27T10:48:08.701Z,23840
2018-03-27T10:49:18.471Z,23296
2018-03-27T10:50:28.485Z,22560
2018-03-27T10:51:37.937Z,22208
2018-03-27T10:52:47.927Z,22080
2018-03-27T10:53:57.700Z,22048
2018-03-27T10:55:07.677Z,21792
2018-03-27T10:56:17.403Z,21728
2018-03-27T10:57:27.395Z,21984
2018-03-27T10:58:37.381Z,22272
2018-03-27T10:59:47.093Z,22816
2018-03-27T11:00:56.821Z,23232
2018-03-27T11:02:06.788Z,23904
2018-03-27T11:03:16.766Z,24512
2018-03-27T11:04:26.748Z,24704
2018-03-27T11:05:36.460Z,24896
2018-03-27T11:06:46.446Z,25440
2018-03-27T11:07:56.153Z,25984
2018-03-27T11:09:05.880Z,26240
2018-03-27T11:10:15.342Z,26464
2018-03-27T11:11:24.822Z,26368
2018-03-27T11:12:34.805Z,26080
2018-03-27T11:13:44.009Z,25760
2018-03-27T11:14:53.220Z,25568
2018-03-27T11:16:02.955Z,25472
2018-03-27T11:17:12.156Z,25152
2018-03-27T11:18:22.140Z,24576
2018-03-27T11:19:32.197Z,23904
2018-03-27T11:20:42.168Z,23424
2018-03-27T11:21:52.149Z,22976
2018-03-27T11:23:01.858Z,22688
2018-03-27T11:24:12.095Z,22144
2018-03-27T11:25:22.073Z,21568
2018-03-27T11:26:32.074Z,21088
2018-03-27T11:27:41.798Z,20512
2018-03-27T11:28:51.516Z,19744
2018-03-27T11:30:01.245Z,18944
2018-03-27T11:31:10.721Z,18144
2018-03-27T11:32:20.475Z,17568
2018-03-27T11:33:30.195Z,16784
2018-03-27T11:34:39.391Z,16104
2018-03-27T11:35:49.105Z,15448
2018-03-27T11:36:59.073Z,14808
2018-03-27T11:38:08.780Z,14276
2018-03-27T11:39:18.768Z,13832
2018-03-27T11:40:28.237Z,13436
2018-03-27T11:41:38.227Z,12964
2018-03-27T11:42:48.228Z,12484
2018-03-27T11:43:58.330Z,12104
2018-03-27T11:45:08.311Z,11848
2018-03-27T11:46:18.031Z,11708
2018-03-27T11:47:28.028Z,11656
2018-03-27T11:48:38.020Z,11680
2018-03-27T11:49:47.476Z,11800
2018-03-27T11:50:56.937Z,11888
2018-03-27T11:52:06.397Z,11996
2018-03-27T11:53:16.386Z,12160
2018-03-27T11:54:26.371Z,12400
2018-03-27T11:55:36.090Z,12696
2018-03-27T11:56:45.797Z,13040
2018-03-27T11:57:55.770Z,13344
2018-03-27T11:59:05.751Z,13620
2018-03-27T12:00:15.473Z,13780
2018-03-27T12:01:25.221Z,13832
2018-03-27T12:02:34.671Z,13804
2018-03-27T12:03:44.378Z,13776
2018-03-27T12:04:54.343Z,13828
2018-03-27T12:06:04.322Z,13908
2018-03-27T12:07:14.029Z,13996
2018-03-27T12:08:24.009Z,14224
2018-03-27T12:09:33.742Z,14652
2018-03-27T12:10:43.716Z,15304
2018-03-27T12:11:53.705Z,16040
2018-03-27T12:13:03.413Z,16752
2018-03-27T12:14:13.132Z,17760
2018-03-27T12:15:23.315Z,18816
2018-03-27T12:16:33.284Z,19968
2018-03-27T12:17:43.020Z,21376
2018-03-27T12:18:52.994Z,23136
2018-03-27T12:20:02.708Z,24832
2018-03-27T12:21:12.156Z,26336
2018-03-27T12:22:21.355Z,27520
2018-03-27T12:23:31.056Z,28256
2018-03-27T12:24:40.774Z,28608
2018-03-27T12:25:50.510Z,28224
2018-03-27T12:26:59.958Z,27104
2018-03-27T12:28:09.673Z,25920
2018-03-27T12:29:19.391Z,25248
2018-03-27T12:30:29.112Z,24832
2018-03-27T12:31:39.126Z,24640
2018-03-27T12:32:48.882Z,24864
2018-03-27T12:33:58.346Z,25696
2018-03-27T12:35:07.544Z,26816
2018-03-27T12:36:17.263Z,27808
2018-03-27T12:37:26.448Z,28416
2018-03-27T12:38:36.156Z,28992
2018-03-27T12:39:46.135Z,29600
2018-03-27T12:40:55.852Z,30144
2018-03-27T12:42:05.821Z,30656
2018-03-27T12:43:15.543Z,31168
2018-03-27T12:44:25.315Z,31776
2018-03-27T12:45:34.763Z,32736
2018-03-27T12:46:44.475Z,34080
2018-03-27T12:47:54.215Z,35712
2018-03-27T12:49:03.938Z,37376
2018-03-27T12:50:13.932Z,40064
2018-03-27T12:51:23.924Z,42656
2018-03-27T12:52:33.688Z,43136
2018-03-27T12:53:43.398Z,43008
2018-03-27T12:54:53.128Z,42464
2018-03-27T12:56:02.861Z,42016
2018-03-27T12:57:12.576Z,41632
2018-03-27T12:58:22.290Z,43200
2018-03-27T12:59:32.014Z,45664
2018-03-27T13:00:41.761Z,49056
2018-03-27T13:01:51.764Z,54048
2018-03-27T13:03:01.478Z,50112
2018-03-27T13:04:11.200Z,48704
2018-03-27T13:05:20.400Z,46944
2018-03-27T13:06:30.391Z,45376
2018-03-27T13:07:40.367Z,43520
2018-03-27T13:08:50.090Z,42848
2018-03-27T13:10:00.093Z,44000
2018-03-27T13:11:10.069Z,45216
2018-03-27T13:12:19.791Z,45120
2018-03-27T13:13:28.977Z,41152
2018-03-27T13:14:38.464Z,39136
2018-03-27T13:15:48.442Z,38048
2018-03-27T13:16:58.150Z,39488
2018-03-27T13:18:07.897Z,38880
2018-03-27T13:19:17.621Z,39552
2018-03-27T13:20:27.362Z,39520
2018-03-27T13:21:37.088Z,39488
2018-03-27T13:22:46.819Z,39040
2018-03-27T13:23:56.266Z,38272
2018-03-27T13:25:06.244Z,37344
2018-03-27T13:26:16.213Z,36416
2018-03-27T13:27:25.929Z,35488
2018-03-27T13:28:35.669Z,34656
2018-03-27T13:29:45.652Z,33984
2018-03-27T13:30:55.625Z,33568
2018-03-27T13:32:05.598Z,33792
2018-03-27T13:33:15.056Z,34368
2018-03-27T13:34:25.029Z,34848
2018-03-27T13:35:35.005Z,35200
2018-03-27T13:36:44.993Z,35520
2018-03-27T13:37:54.981Z,36672
2018-03-27T13:39:04.677Z,37760
2018-03-27T13:40:14.363Z,38208
2018-03-27T13:41:24.346Z,38880
2018-03-27T13:42:34.048Z,38720
2018-03-27T13:43:44.013Z,39680
2018-03-27T13:44:53.727Z,39808
2018-03-27T13:46:03.430Z,39392
2018-03-27T13:47:13.402Z,35840
2018-03-27T13:48:23.387Z,33696
2018-03-27T13:49:32.589Z,32768
2018-03-27T13:50:42.576Z,31488
2018-03-27T13:51:52.040Z,31200
2018-03-27T13:53:01.763Z,32576
2018-03-27T13:54:11.747Z,34048
2018-03-27T13:55:21.466Z,33792
2018-03-27T13:56:30.939Z,32672
2018-03-27T13:57:40.381Z,30656
2018-03-27T13:58:49.842Z,29952
2018-03-27T13:59:59.805Z,30112
2018-03-27T14:01:09.517Z,32224
2018-03-27T14:02:18.706Z,35232
2018-03-27T14:03:28.681Z,40704
2018-03-27T14:04:38.645Z,43712
2018-03-27T14:05:48.362Z,51264
2018-03-27T14:06:58.080Z,115520
2018-03-27T14:08:07.522Z,111008
2018-03-27T14:09:17.243Z,115072
2018-03-27T14:10:26.966Z,119168
2018-03-27T14:11:36.739Z,111968
2018-03-27T14:12:46.201Z,113120
2018-03-27T14:13:56.187Z,114368
2018-03-27T14:15:06.379Z,71616
2018-03-27T14:16:16.121Z,85408
2018-03-27T14:17:26.109Z,104832
2018-03-27T14:18:36.110Z,112640
2018-03-27T14:19:45.814Z,109312
2018-03-27T14:20:55.803Z,108704
2018-03-27T14:22:05.781Z,113952
2018-03-27T14:23:15.520Z,110112
2018-03-27T14:24:25.234Z,101952
2018-03-27T14:25:34.724Z,106528
2018-03-27T14:26:44.213Z,108448
2018-03-27T14:27:54.203Z,108480
2018-03-27T14:29:04.187Z,110496
2018-03-27T14:30:13.905Z,110048
2018-03-27T14:31:23.646Z,106208
2018-03-27T14:32:33.439Z,114432
2018-03-27T14:33:42.904Z,107296
2018-03-27T14:34:52.649Z,96960
2018-03-27T14:36:02.365Z,90688
2018-03-27T14:37:12.367Z,53312
2018-03-27T14:38:22.249Z,43968
2018-03-27T14:39:32.216Z,44128
2018-03-27T14:40:41.936Z,43136
2018-03-27T14:41:51.916Z,42304
2018-03-27T14:43:01.909Z,75008
2018-03-27T14:44:11.881Z,65536
2018-03-27T14:45:21.864Z,87680
2018-03-27T14:46:31.858Z,98368
2018-03-27T14:47:41.839Z,87488
2018-03-27T14:48:51.816Z,86432
2018-03-27T14:50:01.799Z,95744
2018-03-27T14:51:11.788Z,95232
2018-03-27T14:52:21.758Z,96992
2018-03-27T14:53:31.738Z,96992
2018-03-27T14:54:41.192Z,91424
2018-03-27T14:55:50.921Z,89792
2018-03-27T14:57:00.919Z,72576
2018-03-27T14:58:10.656Z,58080
2018-03-27T14:59:20.384Z,87264
2018-03-27T15:00:30.365Z,82208
2018-03-27T15:01:40.087Z,42432
2018-03-27T15:02:50.059Z,32800
2018-03-27T15:03:59.758Z,35168
2018-03-27T15:05:10.004Z,63744
2018-03-27T15:06:19.716Z,48544
2018-03-27T15:07:29.455Z,62528
2018-03-27T15:08:39.155Z,65760
2018-03-27T15:09:49.127Z,84352
2018-03-27T15:10:59.113Z,36160
2018-03-27T15:12:09.100Z,29216
2018-03-27T15:13:18.821Z,30560
2018-03-27T15:14:28.822Z,45888
2018-03-27T15:15:38.542Z,55968
2018-03-27T15:16:48.012Z,71104
2018-03-27T15:17:57.772Z,74400
2018-03-27T15:19:07.214Z,73632
2018-03-27T15:20:16.964Z,72768
2018-03-27T15:21:27.030Z,66432
2018-03-27T15:22:36.742Z,60672
2018-03-27T15:23:46.722Z,52960
2018-03-27T15:24:56.427Z,56992
2018-03-27T15:26:06.124Z,42208
2018-03-27T15:27:15.328Z,37792
2018-03-27T15:28:25.026Z,57056
2018-03-27T15:29:34.743Z,64832
2018-03-27T15:30:44.463Z,70528
2018-03-27T15:31:54.189Z,72032
2018-03-27T15:33:03.918Z,68640
2018-03-27T15:34:13.438Z,67168
2018-03-27T15:35:23.171Z,62912
2018-03-27T15:36:33.148Z,56480
2018-03-27T15:37:42.612Z,52896